Time;durP1;ratioP1;P1;durP2;ratioP2;P2;SDS_P1;SDS_P2;PMS_P1;PMS_P2;Temp;Humidity;BMP_temperature;BMP_pressure;BME280_temperature;BME280_humidity;BME280_pressure;Samples;Min_cycle;Max_cycle;Signal;HPM_P1;HPM_P2
2021/06/17 00:00:04;;;;;;;;;;;20.00;99.90;;;;;;5067972;28;19913;-57
2021/06/17 00:02:30;;;;;;;;;;;19.90;99.90;;;;;;5068122;28;19924;-56
2021/06/17 00:04:55;;;;;;;;;;;19.90;99.90;;;;;;5068364;28;20003;-57
2021/06/17 00:07:21;;;;;;;;;;;20.00;99.90;;;;;;5068119;28;19978;-57
2021/06/17 00:09:47;;;;;;;;;;;19.80;99.90;;;;;;5067475;28;20033;-57
2021/06/17 00:12:12;;;;;;;;;;;19.80;99.90;;;;;;5068080;28;20358;-58
2021/06/17 00:14:39;;;;;;;;;;;19.80;99.90;;;;;;5069090;28;19908;-58
2021/06/17 00:17:05;;;;;;;;;;;19.90;99.90;;;;;;5068400;28;19908;-54
2021/06/17 00:19:30;;;;;;;;;;;19.70;99.90;;;;;;5067587;28;20380;-58
2021/06/17 00:21:56;;;;;;;;;;;19.70;99.90;;;;;;5067732;28;19916;-60
2021/06/17 00:24:22;;;;;;;;;;;19.80;99.90;;;;;;5066927;28;19987;-61
2021/06/17 00:26:50;;;;;;;;;;;19.70;99.90;;;;;;5067637;28;20543;-59
2021/06/17 00:29:15;;;;;;;;;;;19.50;1.00;;;;;;5067355;28;19967;-61
2021/06/17 00:31:41;;;;;;;;;;;19.60;1.00;;;;;;5066868;28;20361;-58
2021/06/17 00:34:09;;;;;;;;;;;19.50;1.00;;;;;;5067731;28;20367;-59
2021/06/17 00:36:38;;;;;;;;;;;19.40;1.00;;;;;;5067692;28;19916;-58
2021/06/17 00:39:07;;;;;;;;;;;19.40;1.00;;;;;;5067533;28;19988;-58
2021/06/17 00:41:34;;;;;;;;;;;19.30;1.00;;;;;;5067505;28;19916;-58
2021/06/17 00:44:00;;;;;;;;;;;19.30;1.00;;;;;;5067122;28;20326;-57
2021/06/17 00:46:25;;;;;;;;;;;19.30;1.00;;;;;;5066289;28;19920;-58
2021/06/17 00:48:51;;;;;;;;;;;19.40;1.00;;;;;;5066893;28;19916;-59
2021/06/17 00:51:17;;;;;;;;;;;19.40;1.00;;;;;;5067122;28;20273;-62
2021/06/17 00:53:46;;;;;;;;;;;19.30;1.00;;;;;;5068280;28;19909;-61
2021/06/17 00:56:11;;;;;;;;;;;19.30;1.00;;;;;;5067744;28;20054;-58
2021/06/17 00:58:37;;;;;;;;;;;19.40;1.00;;;;;;5067173;28;20166;-59
2021/06/17 01:01:02;;;;;;;;;;;19.30;1.00;;;;;;5066605;28;20377;-58
2021/06/17 01:03:28;;;;;;;;;;;19.20;1.00;;;;;;5067060;28;19913;-53
2021/06/17 01:05:54;;;;;;;;;;;19.20;1.00;;;;;;5067262;28;20093;-52
2021/06/17 01:08:19;;;;;;;;;;;19.10;1.00;;;;;;5067221;28;20388;-54
2021/06/17 01:10:45;;;;;;;;;;;19.10;1.00;;;;;;5066853;28;19913;-55
2021/06/17 01:13:22;;;;;;;;;;;19.10;1.00;;;;;;5067325;28;19920;-55
2021/06/17 01:15:51;;;;;;;;;;;19.10;1.00;;;;;;5067180;28;20077;-53
2021/06/17 01:18:17;;;;;;;;;;;19.10;1.00;;;;;;5066766;28;20246;-55
2021/06/17 01:20:46;;;;;;;;;;;19.00;1.00;;;;;;5066691;28;19919;-55
2021/06/17 01:23:30;;;;;;;;;;;18.90;1.00;;;;;;5067121;28;19908;-53
2021/06/17 01:26:14;;;;;;;;;;;18.80;1.00;;;;;;5066947;28;19908;-54
2021/06/17 01:28:40;;;;;;;;;;;18.80;1.00;;;;;;5067180;28;20303;-55
2021/06/17 01:31:14;;;;;;;;;;;18.80;1.00;;;;;;5066395;28;19987;-55
2021/06/17 01:33:41;;;;;;;;;;;18.80;1.00;;;;;;5066803;28;20364;-54
2021/06/17 01:36:12;;;;;;;;;;;18.80;1.00;;;;;;5067198;28;19920;-56
2021/06/17 01:38:38;;;;;;;;;;;18.80;1.00;;;;;;5067214;28;20433;-55
2021/06/17 01:41:04;;;;;;;;;;;18.80;1.00;;;;;;5066660;28;20144;-56
2021/06/17 01:43:30;;;;;;;;;;;18.70;53.70;;;;;;5066990;28;19995;-53
2021/06/17 01:45:57;;;;;;;;;;;18.70;99.90;;;;;;5066824;28;20318;-55
2021/06/17 01:48:23;;;;;;;;;;;18.70;99.90;;;;;;5066625;28;19955;-55
2021/06/17 01:50:50;;;;;;;;;;;18.60;99.90;;;;;;5066017;28;19971;-55
2021/06/17 01:53:16;;;;;;;;;;;18.60;99.90;;;;;;5066825;28;20006;-55
2021/06/17 01:55:43;;;;;;;;;;;18.60;99.90;;;;;;5066772;28;20015;-55
2021/06/17 01:58:10;;;;;;;;;;;18.50;99.90;;;;;;5067854;28;20385;-57
2021/06/17 02:00:36;;;;;;;;;;;18.40;99.90;;;;;;5069927;28;19908;-57
2021/06/17 02:03:04;;;;;;;;;;;18.40;1.00;;;;;;5071279;28;19909;-53
2021/06/17 02:05:30;;;;;;;;;;;18.30;1.00;;;;;;5070219;28;19948;-56
2021/06/17 02:07:58;;;;;;;;;;;18.30;1.00;;;;;;5070325;28;19908;-57
2021/06/17 02:10:25;;;;;;;;;;;18.30;1.00;;;;;;5070151;28;19924;-56
2021/06/17 02:12:51;;;;;;;;;;;18.20;1.00;;;;;;5070725;28;20277;-55
2021/06/17 02:15:17;;;;;;;;;;;18.20;1.00;;;;;;5070826;28;19909;-50
2021/06/17 02:17:45;;;;;;;;;;;18.20;7.10;;;;;;5070059;28;19908;-54
2021/06/17 02:20:10;;;;;;;;;;;18.10;99.90;;;;;;5068812;28;19916;-54
2021/06/17 02:22:40;;;;;;;;;;;18.10;99.90;;;;;;5070458;28;19909;-56
2021/06/17 02:25:06;;;;;;;;;;;18.00;1.00;;;;;;5070832;28;20007;-50
2021/06/17 02:27:32;;;;;;;;;;;18.00;1.00;;;;;;5070350;28;19983;-51
2021/06/17 02:30:03;;;;;;;;;;;18.00;1.00;;;;;;5069892;28;19935;-56
2021/06/17 02:32:30;;;;;;;;;;;18.00;1.00;;;;;;5070211;28;19908;-55
2021/06/17 02:34:56;;;;;;;;;;;17.90;1.00;;;;;;5070273;28;19924;-53
2021/06/17 02:37:22;;;;;;;;;;;17.90;84.60;;;;;;5069824;28;19908;-57
2021/06/17 02:39:48;;;;;;;;;;;18.00;49.60;;;;;;5069731;28;20341;-54
2021/06/17 02:42:15;;;;;;;;;;;17.90;99.90;;;;;;5069767;28;20002;-55
2021/06/17 02:44:41;;;;;;;;;;;17.90;99.90;;;;;;5070457;28;19908;-54
2021/06/17 02:47:07;;;;;;;;;;;17.90;99.90;;;;;;5069399;28;19908;-59
2021/06/17 02:49:32;;;;;;;;;;;17.80;99.90;;;;;;5068962;28;20303;-56
2021/06/17 02:51:58;;;;;;;;;;;17.80;1.00;;;;;;5069213;28;20436;-54
2021/06/17 02:54:23;;;;;;;;;;;17.70;1.00;;;;;;5070177;28;19946;-55
2021/06/17 02:56:49;;;;;;;;;;;17.80;1.00;;;;;;5069432;28;19913;-59
2021/06/17 02:59:21;;;;;;;;;;;17.70;1.00;;;;;;5069637;28;20466;-59
2021/06/17 03:01:50;;;;;;;;;;;17.80;1.00;;;;;;5069246;28;20419;-58
2021/06/17 03:04:21;;;;;;;;;;;17.80;1.00;;;;;;5069717;28;19970;-59
2021/06/17 03:06:49;;;;;;;;;;;17.60;99.90;;;;;;5069479;28;19909;-57
2021/06/17 03:09:19;;;;;;;;;;;17.60;46.90;;;;;;5068763;28;19954;-57
2021/06/17 03:11:47;;;;;;;;;;;17.70;1.00;;;;;;5069383;28;19912;-56
2021/06/17 03:14:14;;;;;;;;;;;17.70;91.30;;;;;;5069544;28;19909;-59
2021/06/17 03:16:41;;;;;;;;;;;17.60;99.90;;;;;;5069426;28;19912;-58
2021/06/17 03:19:08;;;;;;;;;;;17.60;99.90;;;;;;5068521;28;19965;-58
2021/06/17 03:21:38;;;;;;;;;;;17.70;99.90;;;;;;5069166;28;19965;-56
2021/06/17 03:24:05;;;;;;;;;;;17.60;80.70;;;;;;5069594;28;19916;-59
2021/06/17 03:26:32;;;;;;;;;;;17.70;1.00;;;;;;5069664;28;19920;-57
2021/06/17 03:28:58;;;;;;;;;;;17.70;99.90;;;;;;5068671;28;19923;-59
2021/06/17 03:31:25;;;;;;;;;;;17.70;99.90;;;;;;5069149;28;19916;-51
2021/06/17 03:33:52;;;;;;;;;;;17.80;91.70;;;;;;5068738;28;20353;-57
2021/06/17 03:36:17;;;;;;;;;;;17.80;1.00;;;;;;5069240;28;19936;-52
2021/06/17 03:38:43;;;;;;;;;;;17.80;1.00;;;;;;5069122;28;19912;-58
2021/06/17 03:41:10;;;;;;;;;;;17.80;1.00;;;;;;5068474;28;20253;-57
2021/06/17 03:43:37;;;;;;;;;;;18.00;1.00;;;;;;5068524;28;19912;-60
2021/06/17 03:46:03;;;;;;;;;;;18.10;1.00;;;;;;5068510;28;20026;-58
2021/06/17 03:48:28;;;;;;;;;;;18.30;99.90;;;;;;5068580;28;20408;-59
2021/06/17 03:50:54;;;;;;;;;;;18.40;74.10;;;;;;5068543;28;19913;-60
2021/06/17 03:53:20;;;;;;;;;;;18.60;1.00;;;;;;5069025;28;19973;-59
2021/06/17 03:55:46;;;;;;;;;;;18.80;1.00;;;;;;5069200;28;20484;-60
2021/06/17 03:58:11;;;;;;;;;;;19.10;99.90;;;;;;5067958;28;19919;-55
2021/06/17 04:00:37;;;;;;;;;;;19.40;99.90;;;;;;5067845;28;19909;-59
2021/06/17 04:03:07;;;;;;;;;;;19.60;2.10;;;;;;5068461;28;19924;-59
2021/06/17 04:05:33;;;;;;;;;;;19.80;1.00;;;;;;5068234;28;19908;-60
2021/06/17 04:08:00;;;;;;;;;;;20.10;1.00;;;;;;5068189;28;19912;-58
2021/06/17 04:10:27;;;;;;;;;;;20.30;1.00;;;;;;5067833;28;20047;-59
2021/06/17 04:12:57;;;;;;;;;;;20.60;1.00;;;;;;5068187;28;19912;-60
2021/06/17 04:15:24;;;;;;;;;;;20.90;1.00;;;;;;5068363;28;19913;-57
2021/06/17 04:17:57;;;;;;;;;;;21.20;1.00;;;;;;5068492;28;20287;-60
2021/06/17 04:20:45;;;;;;;;;;;21.50;99.90;;;;;;5066855;28;19955;-55
2021/06/17 04:23:13;;;;;;;;;;;21.80;99.90;;;;;;5068021;28;19912;-60
2021/06/17 04:25:39;;;;;;;;;;;22.20;99.90;;;;;;5068513;28;19909;-59
2021/06/17 04:28:05;;;;;;;;;;;22.60;99.90;;;;;;5064017;28;19912;-55
2021/06/17 04:30:31;;;;;;;;;;;22.90;99.90;;;;;;5045282;28;20213;-59
2021/06/17 04:32:59;;;;;;;;;;;23.30;99.90;;;;;;5048108;28;19915;-58
2021/06/17 04:35:25;;;;;;;;;;;23.70;99.90;;;;;;5047186;28;19909;-60
2021/06/17 04:37:51;;;;;;;;;;;24.10;99.90;;;;;;5047779;28;19982;-60
2021/06/17 04:40:18;;;;;;;;;;;24.40;99.90;;;;;;5047504;28;19913;-61
2021/06/17 04:42:43;;;;;;;;;;;24.80;99.90;;;;;;5048107;28;19913;-61
2021/06/17 04:45:10;;;;;;;;;;;25.30;99.90;;;;;;5054949;28;19915;-59
2021/06/17 04:47:37;;;;;;;;;;;25.60;99.90;;;;;;5065977;28;19912;-61
2021/06/17 04:50:04;;;;;;;;;;;26.00;99.90;;;;;;5063687;28;20003;-60
2021/06/17 04:52:30;;;;;;;;;;;26.40;99.90;;;;;;5065116;28;19912;-59
2021/06/17 04:54:55;;;;;;;;;;;26.70;99.90;;;;;;5065705;28;19957;-60
2021/06/17 04:57:21;;;;;;;;;;;27.00;99.90;;;;;;5064802;28;19965;-67
2021/06/17 04:59:46;;;;;;;;;;;27.40;99.90;;;;;;5064330;28;19968;-58
2021/06/17 05:02:12;;;;;;;;;;;27.60;99.90;;;;;;5064066;28;20056;-60
2021/06/17 05:04:39;;;;;;;;;;;27.80;99.90;;;;;;5065148;28;19913;-61
2021/06/17 05:12:17;;;;;;;;;;;28.70;99.90;;;;;;5060558;28;19957;-60
2021/06/17 05:14:43;;;;;;;;;;;29.20;99.90;;;;;;5064584;28;20346;-59
2021/06/17 05:17:08;;;;;;;;;;;29.60;99.90;;;;;;5063521;28;20061;-59
2021/06/17 05:19:34;;;;;;;;;;;29.90;99.90;;;;;;5063625;28;19987;-58
2021/06/17 05:21:59;;;;;;;;;;;30.30;99.90;;;;;;5064352;28;19909;-59
2021/06/17 05:24:26;;;;;;;;;;;30.70;99.90;;;;;;5062925;28;19909;-59
2021/06/17 05:26:51;;;;;;;;;;;31.10;99.90;;;;;;5064109;28;19912;-58
2021/06/17 05:29:17;;;;;;;;;;;31.50;99.90;;;;;;5063766;28;20032;-59
2021/06/17 05:31:42;;;;;;;;;;;31.90;99.90;;;;;;5062713;28;19908;-59
2021/06/17 05:34:08;;;;;;;;;;;32.40;99.90;;;;;;5063486;28;19912;-59
2021/06/17 05:36:33;;;;;;;;;;;32.90;99.90;;;;;;5062897;28;20508;-60
2021/06/17 05:38:59;;;;;;;;;;;33.00;99.90;;;;;;5063631;28;19908;-59
2021/06/17 05:41:24;;;;;;;;;;;33.30;99.90;;;;;;5063520;28;19959;-59
2021/06/17 05:43:50;;;;;;;;;;;33.30;99.90;;;;;;5064102;28;19908;-59
2021/06/17 05:46:15;;;;;;;;;;;33.50;99.90;;;;;;5063727;28;19928;-60
2021/06/17 05:48:42;;;;;;;;;;;33.70;99.20;;;;;;5063889;28;20356;-60
2021/06/17 05:51:07;;;;;;;;;;;34.50;96.10;;;;;;5063911;28;19957;-59
2021/06/17 05:53:33;;;;;;;;;;;34.80;92.80;;;;;;5064447;28;20456;-59
2021/06/17 05:55:59;;;;;;;;;;;34.90;88.90;;;;;;5065140;28;19924;-59
2021/06/17 05:58:24;;;;;;;;;;;34.90;83.80;;;;;;5064175;28;19908;-59
2021/06/17 06:00:50;;;;;;;;;;;35.20;79.20;;;;;;5063392;28;19971;-61
2021/06/17 06:03:18;;;;;;;;;;;35.50;73.00;;;;;;5064453;28;20053;-59
2021/06/17 06:05:44;;;;;;;;;;;35.60;68.70;;;;;;5064886;28;20229;-60
2021/06/17 06:08:13;;;;;;;;;;;36.30;63.80;;;;;;5064175;28;19919;-58
2021/06/17 06:10:40;;;;;;;;;;;36.70;59.20;;;;;;5062086;28;19919;-59
2021/06/17 06:13:06;;;;;;;;;;;37.00;55.40;;;;;;5063798;28;19948;-59
2021/06/17 06:15:33;;;;;;;;;;;37.10;51.40;;;;;;5063849;28;19962;-61
2021/06/17 06:18:06;;;;;;;;;;;37.40;47.90;;;;;;5064491;28;20267;-61
2021/06/17 06:20:32;;;;;;;;;;;37.70;43.80;;;;;;5063342;28;19943;-64
2021/06/17 06:22:58;;;;;;;;;;;37.90;39.40;;;;;;5063970;28;20399;-65
2021/06/17 06:25:24;;;;;;;;;;;38.20;35.10;;;;;;5063606;28;20058;-64
2021/06/17 06:27:49;;;;;;;;;;;38.20;31.80;;;;;;5063876;28;19970;-64
2021/06/17 06:30:15;;;;;;;;;;;37.70;27.60;;;;;;5062629;28;19966;-64
2021/06/17 06:32:40;;;;;;;;;;;37.20;24.80;;;;;;5063826;28;19912;-65
2021/06/17 06:35:07;;;;;;;;;;;37.80;23.20;;;;;;5064861;28;19961;-63
2021/06/17 06:37:32;;;;;;;;;;;38.50;22.60;;;;;;5066421;28;20328;-63
2021/06/17 06:39:58;;;;;;;;;;;39.10;19.90;;;;;;5066525;28;19972;-64
2021/06/17 06:42:23;;;;;;;;;;;39.70;19.10;;;;;;5065964;28;19916;-63
2021/06/17 06:44:49;;;;;;;;;;;39.80;26.80;;;;;;5066855;28;19908;-65
2021/06/17 06:47:14;;;;;;;;;;;39.40;13.90;;;;;;5069561;28;19912;-63
2021/06/17 06:49:40;;;;;;;;;;;39.60;12.20;;;;;;5068924;28;19912;-62
2021/06/17 06:52:05;;;;;;;;;;;40.20;11.30;;;;;;5069168;28;19924;-62
2021/06/17 06:54:31;;;;;;;;;;;40.40;9.70;;;;;;5069825;28;20362;-63
2021/06/17 06:56:56;;;;;;;;;;;40.70;7.50;;;;;;5069243;28;20065;-63
2021/06/17 06:59:22;;;;;;;;;;;41.40;5.90;;;;;;5069123;28;19916;-63
2021/06/17 07:01:47;;;;;;;;;;;41.80;3.30;;;;;;5070148;28;19995;-63
2021/06/17 07:04:13;;;;;;;;;;;41.30;1.00;;;;;;5069050;28;19916;-63
2021/06/17 07:06:39;;;;;;;;;;;41.60;1.00;;;;;;5069201;28;19909;-63
2021/06/17 07:09:05;;;;;;;;;;;41.80;1.00;;;;;;5069393;28;19924;-64
2021/06/17 07:11:31;;;;;;;;;;;42.60;1.00;;;;;;5069548;28;19908;-62
2021/06/17 07:13:57;;;;;;;;;;;42.80;1.00;;;;;;5069568;28;20618;-65
2021/06/17 07:16:24;;;;;;;;;;;43.20;1.00;;;;;;5068941;28;19938;-64
2021/06/17 07:18:49;;;;;;;;;;;43.60;1.00;;;;;;5069162;28;19916;-63
2021/06/17 07:21:16;;;;;;;;;;;44.10;1.00;;;;;;5069124;28;20334;-64
2021/06/17 07:23:45;;;;;;;;;;;43.70;1.00;;;;;;5069579;28;19947;-65
2021/06/17 07:26:11;;;;;;;;;;;43.00;1.00;;;;;;5069019;28;19954;-65
2021/06/17 07:28:36;;;;;;;;;;;43.40;1.00;;;;;;5068987;28;19916;-65
2021/06/17 07:31:02;;;;;;;;;;;43.40;1.00;;;;;;5068163;28;19965;-64
2021/06/17 07:33:28;;;;;;;;;;;43.20;1.00;;;;;;5069030;28;20365;-64
2021/06/17 07:35:54;;;;;;;;;;;43.70;1.00;;;;;;5069301;28;20539;-65
2021/06/17 07:38:19;;;;;;;;;;;44.20;1.00;;;;;;5068193;28;19908;-65
2021/06/17 07:40:45;;;;;;;;;;;44.20;1.00;;;;;;5068829;28;19909;-65
2021/06/17 07:43:11;;;;;;;;;;;44.70;1.00;;;;;;5091953;22;19928;-65
2021/06/17 07:45:37;;;;;;;;;;;45.20;1.00;;;;;;5069002;28;19908;-65
2021/06/17 07:48:03;;;;;;;;;;;45.80;1.00;;;;;;5069491;28;19931;-65
2021/06/17 07:50:29;;;;;;;;;;;45.80;1.00;;;;;;5067700;28;20259;-65
2021/06/17 07:52:55;;;;;;;;;;;46.00;1.00;;;;;;5068984;28;19909;-65
2021/06/17 07:55:20;;;;;;;;;;;45.80;1.00;;;;;;5069166;28;20414;-66
2021/06/17 07:57:46;;;;;;;;;;;45.10;1.00;;;;;;5069111;28;19916;-65
2021/06/17 08:00:12;;;;;;;;;;;44.70;1.00;;;;;;5068834;28;20009;-63
2021/06/17 08:02:37;;;;;;;;;;;44.50;1.00;;;;;;5068248;28;19909;-67
2021/06/17 08:05:03;;;;;;;;;;;45.40;1.00;;;;;;5069194;28;19974;-65
2021/06/17 08:07:28;;;;;;;;;;;46.30;1.00;;;;;;5069044;28;19912;-64
2021/06/17 08:09:54;;;;;;;;;;;46.90;1.00;;;;;;5068380;28;19935;-64
2021/06/17 08:12:20;;;;;;;;;;;47.00;1.00;;;;;;5068550;28;19913;-65
2021/06/17 08:14:46;;;;;;;;;;;46.30;1.00;;;;;;5069164;28;19958;-66
2021/06/17 08:17:11;;;;;;;;;;;47.10;1.00;;;;;;5068500;28;19948;-65
2021/06/17 08:19:37;;;;;;;;;;;47.30;1.00;;;;;;5069009;28;20372;-65
2021/06/17 08:22:04;;;;;;;;;;;46.90;1.00;;;;;;5069103;28;19912;-64
2021/06/17 08:24:30;;;;;;;;;;;47.40;1.00;;;;;;5069574;28;19948;-65
2021/06/17 08:26:55;;;;;;;;;;;47.10;1.00;;;;;;5068347;28;20331;-66
2021/06/17 08:29:22;;;;;;;;;;;47.10;1.00;;;;;;5066215;28;19915;-66
2021/06/17 08:31:47;;;;;;;;;;;47.60;1.00;;;;;;5066856;28;20000;-66
2021/06/17 08:34:13;;;;;;;;;;;48.60;1.00;;;;;;5068181;28;19915;-63
2021/06/17 08:36:39;;;;;;;;;;;48.40;1.00;;;;;;5066302;28;19924;-65
2021/06/17 08:39:05;;;;;;;;;;;47.90;1.00;;;;;;5067866;28;19908;-63
2021/06/17 08:41:30;;;;;;;;;;;46.70;1.00;;;;;;5067011;28;20230;-65
2021/06/17 08:43:56;;;;;;;;;;;46.00;1.00;;;;;;5067629;28;19938;-64
2021/06/17 08:46:21;;;;;;;;;;;45.50;1.00;;;;;;5067553;28;19922;-64
2021/06/17 08:48:47;;;;;;;;;;;45.40;1.00;;;;;;5067795;28;19908;-64
2021/06/17 08:51:13;;;;;;;;;;;45.00;1.00;;;;;;5067359;28;20253;-64
2021/06/17 08:53:38;;;;;;;;;;;44.50;1.00;;;;;;5068234;28;20007;-67
2021/06/17 08:56:04;;;;;;;;;;;45.00;1.00;;;;;;5068487;28;19909;-63
2021/06/17 08:58:30;;;;;;;;;;;46.50;1.00;;;;;;5067558;28;20258;-65
2021/06/17 09:00:55;;;;;;;;;;;47.40;1.00;;;;;;5066965;28;19961;-65
2021/06/17 09:03:21;;;;;;;;;;;47.20;1.00;;;;;;5067435;28;20015;-65
2021/06/17 09:05:51;;;;;;;;;;;48.30;1.00;;;;;;5068165;28;19919;-64
2021/06/17 09:08:26;;;;;;;;;;;48.00;1.00;;;;;;5066490;28;20356;-63
2021/06/17 09:10:51;;;;;;;;;;;47.70;1.00;;;;;;5067387;28;20280;-63
2021/06/17 09:13:17;;;;;;;;;;;46.80;1.00;;;;;;5067402;28;19966;-65
2021/06/17 09:15:49;;;;;;;;;;;46.50;1.00;;;;;;5067658;28;19962;-65
2021/06/17 09:18:16;;;;;;;;;;;46.50;1.00;;;;;;5068100;28;19913;-64
2021/06/17 09:20:46;;;;;;;;;;;47.00;1.00;;;;;;5066547;28;19923;-65
2021/06/17 09:23:18;;;;;;;;;;;47.60;1.00;;;;;;5067414;28;19912;-64
2021/06/17 09:25:47;;;;;;;;;;;47.80;1.00;;;;;;5067415;28;20381;-65
2021/06/17 09:28:13;;;;;;;;;;;47.50;1.00;;;;;;5067415;28;19920;-64
2021/06/17 09:30:38;;;;;;;;;;;46.90;1.00;;;;;;5065911;28;19922;-65
2021/06/17 09:33:10;;;;;;;;;;;46.20;1.00;;;;;;5067521;28;20320;-69
2021/06/17 09:35:46;;;;;;;;;;;45.70;1.00;;;;;;5067075;28;20003;-64
2021/06/17 09:38:11;;;;;;;;;;;45.20;1.00;;;;;;5067179;28;19908;-66
2021/06/17 09:40:39;;;;;;;;;;;45.10;1.00;;;;;;5066497;28;19954;-65
2021/06/17 09:43:11;;;;;;;;;;;46.10;1.00;;;;;;5067158;28;19923;-65
2021/06/17 09:45:37;;;;;;;;;;;47.00;1.00;;;;;;5066952;28;19908;-66
2021/06/17 09:48:02;;;;;;;;;;;47.50;1.00;;;;;;5067683;28;19973;-64
2021/06/17 09:50:28;;;;;;;;;;;47.70;1.00;;;;;;5066036;28;19917;-66
2021/06/17 09:52:55;;;;;;;;;;;47.40;1.00;;;;;;5067567;28;20377;-66
2021/06/17 09:55:42;;;;;;;;;;;47.60;1.00;;;;;;5067723;28;19985;-64
2021/06/17 09:58:09;;;;;;;;;;;47.00;1.00;;;;;;5067106;28;20323;-66
2021/06/17 10:00:34;;;;;;;;;;;46.50;1.00;;;;;;5065891;28;19984;-65
2021/06/17 10:03:14;;;;;;;;;;;46.70;1.00;;;;;;5067075;28;19989;-65
2021/06/17 10:05:39;;;;;;;;;;;46.50;1.00;;;;;;5066484;28;19960;-65
2021/06/17 10:08:05;;;;;;;;;;;46.80;1.00;;;;;;5067152;28;19967;-64
2021/06/17 10:10:35;;;;;;;;;;;45.80;1.00;;;;;;5066245;28;19912;-65
2021/06/17 10:13:03;;;;;;;;;;;46.80;1.00;;;;;;5064843;28;19909;-65
2021/06/17 10:15:28;;;;;;;;;;;47.80;1.00;;;;;;5066275;28;20179;-65
2021/06/17 10:17:54;;;;;;;;;;;47.80;1.00;;;;;;5067261;28;19912;-65
2021/06/17 10:20:20;;;;;;;;;;;48.20;1.00;;;;;;5069162;28;19916;-65
2021/06/17 10:22:50;;;;;;;;;;;47.40;1.00;;;;;;5069805;28;20369;-64
2021/06/17 10:25:32;;;;;;;;;;;46.80;1.00;;;;;;5071268;28;20437;-65
2021/06/17 10:27:58;;;;;;;;;;;46.10;1.00;;;;;;5070145;28;19968;-65
2021/06/17 10:30:39;;;;;;;;;;;44.80;1.00;;;;;;5070323;28;19913;-64
2021/06/17 10:33:05;;;;;;;;;;;45.80;1.00;;;;;;5070862;28;20258;-65
2021/06/17 10:35:30;;;;;;;;;;;47.60;1.00;;;;;;5069948;28;19908;-65
2021/06/17 10:38:03;;;;;;;;;;;47.60;1.00;;;;;;5070051;28;19919;-63
2021/06/17 10:40:30;;;;;;;;;;;47.10;1.00;;;;;;5070214;28;19916;-64
2021/06/17 10:42:57;;;;;;;;;;;47.10;1.00;;;;;;5070077;28;20296;-65
2021/06/17 10:45:34;;;;;;;;;;;46.40;1.00;;;;;;5070549;28;20173;-64
2021/06/17 10:48:05;;;;;;;;;;;46.00;1.00;;;;;;5070554;28;19912;-64
2021/06/17 10:50:40;;;;;;;;;;;45.20;1.00;;;;;;5068934;28;20003;-63
2021/06/17 10:53:24;;;;;;;;;;;45.80;1.00;;;;;;5070339;28;20003;-64
2021/06/17 10:55:51;;;;;;;;;;;46.40;1.00;;;;;;5069546;28;20225;-64
2021/06/17 10:58:16;;;;;;;;;;;45.40;1.00;;;;;;5068766;28;19913;-65
2021/06/17 11:00:48;;;;;;;;;;;45.60;1.00;;;;;;5068078;28;20092;-65
2021/06/17 11:03:13;;;;;;;;;;;46.50;1.00;;;;;;5069646;28;20323;-64
2021/06/17 11:05:41;;;;;;;;;;;46.50;1.00;;;;;;5069539;28;19909;-64
2021/06/17 11:08:16;;;;;;;;;;;45.80;1.00;;;;;;5069606;28;19951;-65
2021/06/17 11:10:44;;;;;;;;;;;45.40;1.00;;;;;;5069326;28;19952;-65
2021/06/17 11:13:24;;;;;;;;;;;44.90;1.00;;;;;;5069287;28;19908;-65
2021/06/17 11:15:49;;;;;;;;;;;44.20;1.00;;;;;;5068032;28;19920;-63
2021/06/17 11:18:16;;;;;;;;;;;43.50;1.00;;;;;;5068782;28;19909;-64
2021/06/17 11:20:42;;;;;;;;;;;43.30;1.00;;;;;;5068225;28;19913;-64
2021/06/17 11:23:08;;;;;;;;;;;44.00;1.00;;;;;;5068952;28;19962;-64
2021/06/17 11:25:36;;;;;;;;;;;44.80;1.00;;;;;;5070081;28;19958;-63
2021/06/17 11:28:04;;;;;;;;;;;45.30;1.00;;;;;;5068926;28;19916;-64
2021/06/17 11:30:39;;;;;;;;;;;45.70;1.00;;;;;;5067730;28;19916;-63
2021/06/17 11:33:17;;;;;;;;;;;46.10;1.00;;;;;;5069480;28;19970;-65
2021/06/17 11:35:43;;;;;;;;;;;46.10;1.00;;;;;;5069322;28;20372;-65
2021/06/17 11:38:09;;;;;;;;;;;45.60;1.00;;;;;;5069365;28;19977;-66
2021/06/17 11:40:35;;;;;;;;;;;45.30;1.00;;;;;;5068131;28;20187;-63
2021/06/17 11:43:01;;;;;;;;;;;44.90;1.00;;;;;;5068955;28;19920;-65
2021/06/17 11:45:36;;;;;;;;;;;44.60;1.00;;;;;;5069534;28;19916;-65
2021/06/17 11:48:06;;;;;;;;;;;44.10;1.00;;;;;;5071642;28;19912;-65
2021/06/17 11:50:31;;;;;;;;;;;43.30;1.00;;;;;;5072232;28;19951;-60
2021/06/17 11:52:58;;;;;;;;;;;42.70;1.00;;;;;;5071350;28;19927;-60
2021/06/17 11:55:23;;;;;;;;;;;42.00;1.00;;;;;;5072678;28;19916;-63
2021/06/17 11:57:49;;;;;;;;;;;41.30;1.00;;;;;;5078758;28;19973;-63
2021/06/17 12:00:30;;;;;;;;;;;40.50;1.00;;;;;;5081804;28;19917;-63
2021/06/17 12:02:56;;;;;;;;;;;39.50;1.00;;;;;;5083397;28;19981;-64
2021/06/17 12:05:23;;;;;;;;;;;37.80;1.00;;;;;;5083793;28;19908;-64
2021/06/17 12:07:49;;;;;;;;;;;37.10;1.00;;;;;;5077446;28;19920;-63
2021/06/17 12:10:18;;;;;;;;;;;36.60;1.00;;;;;;5077848;28;19921;-64
2021/06/17 12:12:56;;;;;;;;;;;35.40;1.00;;;;;;5077818;28;19909;-63
2021/06/17 12:15:22;;;;;;;;;;;34.40;1.00;;;;;;5076593;28;19908;-62
2021/06/17 12:17:52;;;;;;;;;;;33.90;1.00;;;;;;5068932;28;20254;-61
2021/06/17 12:20:29;;;;;;;;;;;33.80;1.00;;;;;;5067756;28;19912;-60
2021/06/17 12:23:01;;;;;;;;;;;33.70;1.00;;;;;;5068035;28;19921;-64
2021/06/17 12:25:27;;;;;;;;;;;33.80;1.00;;;;;;5068926;28;20025;-63
2021/06/17 12:27:53;;;;;;;;;;;34.00;1.00;;;;;;5067848;28;19916;-65
2021/06/17 12:30:22;;;;;;;;;;;34.10;1.00;;;;;;5067991;28;19916;-64
2021/06/17 12:32:47;;;;;;;;;;;34.20;1.00;;;;;;5067227;28;19915;-62
2021/06/17 12:35:13;;;;;;;;;;;33.90;1.00;;;;;;5067095;28;19917;-65
2021/06/17 12:38:08;;;;;;;;;;;33.80;1.00;;;;;;5067866;28;19916;-64
2021/06/17 12:40:38;;;;;;;;;;;33.80;1.00;;;;;;5053638;28;19969;-63
2021/06/17 12:43:06;;;;;;;;;;;33.70;1.00;;;;;;5066991;28;19923;-63
2021/06/17 12:45:32;;;;;;;;;;;33.80;1.00;;;;;;5067655;28;19912;-64
2021/06/17 12:48:06;;;;;;;;;;;33.80;1.00;;;;;;5068069;28;19909;-64
2021/06/17 12:53:15;;;;;;;;;;;33.70;1.00;;;;;;5067169;28;19969;-64
2021/06/17 12:55:41;;;;;;;;;;;33.50;1.00;;;;;;5066168;28;19995;-64
2021/06/17 12:58:12;;;;;;;;;;;33.40;1.00;;;;;;5067677;28;20388;-64
2021/06/17 13:00:37;;;;;;;;;;;33.30;1.00;;;;;;5066401;28;19909;-65
2021/06/17 13:03:03;;;;;;;;;;;33.10;1.00;;;;;;5067250;28;20050;-64
2021/06/17 13:05:29;;;;;;;;;;;32.80;1.00;;;;;;5068009;28;19935;-64
2021/06/17 13:08:03;;;;;;;;;;;32.70;1.00;;;;;;5067466;28;19948;-65
2021/06/17 13:10:52;;;;;;;;;;;32.60;1.00;;;;;;5066628;28;20226;-63
2021/06/17 13:13:21;;;;;;;;;;;32.60;1.00;;;;;;5067641;28;19953;-63
2021/06/17 13:15:48;;;;;;;;;;;32.70;1.00;;;;;;5067464;28;19908;-65
2021/06/17 13:18:15;;;;;;;;;;;32.70;1.00;;;;;;5067823;28;19934;-65
2021/06/17 13:20:45;;;;;;;;;;;32.30;1.00;;;;;;5067028;28;20062;-64
2021/06/17 13:23:16;;;;;;;;;;;32.00;1.00;;;;;;5067383;28;19913;-65
2021/06/17 13:25:42;;;;;;;;;;;31.80;1.00;;;;;;5067792;28;19971;-62
2021/06/17 13:28:26;;;;;;;;;;;31.60;1.00;;;;;;5067730;28;19944;-64
2021/06/17 13:30:52;;;;;;;;;;;31.70;1.00;;;;;;5066232;28;19913;-64
2021/06/17 13:33:18;;;;;;;;;;;31.90;1.00;;;;;;5067772;28;19908;-63
2021/06/17 13:35:44;;;;;;;;;;;31.70;1.00;;;;;;5067559;28;19909;-63
2021/06/17 13:38:09;;;;;;;;;;;31.60;1.00;;;;;;5067114;28;19909;-65
2021/06/17 13:40:35;;;;;;;;;;;31.60;1.00;;;;;;5067030;28;19909;-64
2021/06/17 13:43:00;;;;;;;;;;;31.40;1.00;;;;;;5067091;28;19927;-61
2021/06/17 13:45:27;;;;;;;;;;;31.30;1.00;;;;;;5067186;28;19987;-62
2021/06/17 13:47:53;;;;;;;;;;;31.40;1.00;;;;;;5068009;28;19999;-65
2021/06/17 13:50:18;;;;;;;;;;;31.40;1.00;;;;;;5066999;28;19917;-65
2021/06/17 13:52:44;;;;;;;;;;;31.40;1.00;;;;;;5067082;28;20325;-64
2021/06/17 13:55:16;;;;;;;;;;;31.60;1.00;;;;;;5070812;28;19995;-64
2021/06/17 13:57:48;;;;;;;;;;;31.60;1.00;;;;;;5069811;28;20389;-64
2021/06/17 14:00:14;;;;;;;;;;;31.80;1.00;;;;;;5070955;28;20361;-65
2021/06/17 14:02:41;;;;;;;;;;;31.80;1.00;;;;;;5070899;28;19918;-64
2021/06/17 14:05:06;;;;;;;;;;;31.90;1.00;;;;;;5069539;28;20015;-65
2021/06/17 14:07:32;;;;;;;;;;;31.90;1.00;;;;;;5071361;28;20377;-65
2021/06/17 14:09:57;;;;;;;;;;;31.90;1.00;;;;;;5070143;28;20249;-65
2021/06/17 14:12:23;;;;;;;;;;;32.10;1.00;;;;;;5070600;28;19999;-63
2021/06/17 14:14:51;;;;;;;;;;;32.20;1.00;;;;;;5071242;28;19922;-64
2021/06/17 14:17:20;;;;;;;;;;;32.40;1.00;;;;;;5070802;28;20584;-64
2021/06/17 14:19:48;;;;;;;;;;;32.40;1.00;;;;;;5070504;28;19985;-66
2021/06/17 14:22:14;;;;;;;;;;;32.60;1.00;;;;;;5070952;28;19958;-66
2021/06/17 14:24:39;;;;;;;;;;;32.80;1.00;;;;;;5071447;28;19913;-65
2021/06/17 14:27:05;;;;;;;;;;;32.80;1.00;;;;;;5070879;28;19913;-65
2021/06/17 14:29:31;;;;;;;;;;;32.80;1.00;;;;;;5070450;28;20401;-64
2021/06/17 14:31:56;;;;;;;;;;;32.90;1.00;;;;;;5070887;28;19984;-66
2021/06/17 14:34:21;;;;;;;;;;;32.80;1.00;;;;;;5070321;28;20023;-65